Time;durP1;ratioP1;P1;durP2;ratioP2;P2;SDS_P1;SDS_P2;PMS_P1;PMS_P2;Temp;Humidity;BMP_temperature;BMP_pressure;BME280_temperature;BME280_humidity;BME280_pressure;Samples;Min_cycle;Max_cycle;Signal;HPM_P1;HPM_P2
2022/11/15 00:01:00;;;;;;;;;;;;;;;;;;4938049;29;19915;-85
2022/11/15 00:03:44;;;;;;;;;;;;;;;;;;4952085;28;20290;-85
2022/11/15 00:06:28;;;;;;;;;;;;;;;;;;4938306;29;20450;-84
2022/11/15 00:09:12;;;;;;;;;;;;;;;;;;4938279;29;19919;-84
2022/11/15 00:11:56;;;;;;;;;;;;;;;;;;4953702;29;19918;-84
2022/11/15 00:14:40;;;;;;;;;;;;;;;;;;4924603;29;19921;-83
2022/11/15 00:17:24;;;;;;;;;;;;;;;;;;4940443;29;19915;-85
2022/11/15 00:20:08;;;;;;;;;;;;;;;;;;4939319;29;19915;-84
2022/11/15 00:22:52;;;;;;;;;;;;;;;;;;4954770;29;19915;-83
2022/11/15 00:25:39;;;;;;;;;;;;;;;;;;4939108;29;20389;-83
2022/11/15 00:28:23;;;;;;;;;;;;;;;;;;4966827;29;19919;-82
2022/11/15 00:31:07;;;;;;;;;;;;;;;;;;4969357;29;19946;-82
2022/11/15 00:33:51;;;;;;;;;;;;;;;;;;4969873;29;19915;-80
2022/11/15 00:36:35;;;;;;;;;;;;;;;;;;4940218;29;20434;-80
2022/11/15 00:39:20;;;;;;;;;;;;;;;;;;4969754;29;19914;-82
2022/11/15 00:42:04;;;;;;;;;;;;;;;;;;4952853;29;19957;-81
2022/11/15 00:44:48;;;;;;;;;;;;;;;;;;4969780;29;19974;-81
2022/11/15 00:47:32;;;;;;;;;;;;;;;;;;4940987;29;19915;-82
2022/11/15 00:50:16;;;;;;;;;;;;;;;;;;4954449;29;19919;-81
2022/11/15 00:53:00;;;;;;;;;;;;;;;;;;4954220;29;19919;-81
2022/11/15 00:55:45;;;;;;;;;;;;;;;;;;4955023;29;19931;-81
2022/11/15 00:58:29;;;;;;;;;;;;;;;;;;4955338;29;20017;-82
2022/11/15 01:01:12;;;;;;;;;;;;;;;;;;4940457;29;19915;-81
2022/11/15 01:03:57;;;;;;;;;;;;;;;;;;4953572;29;19914;-81
2022/11/15 01:06:41;;;;;;;;;;;;;;;;;;4940085;29;19915;-81
2022/11/15 01:09:25;;;;;;;;;;;;;;;;;;4953514;29;19919;-80
2022/11/15 01:12:09;;;;;;;;;;;;;;;;;;4969000;29;19982;-81
2022/11/15 01:14:53;;;;;;;;;;;;;;;;;;5242656;23;19945;-91
2022/11/15 01:17:43;;;;;;;;;;;;;;;;;;5033452;23;19933;-93
2022/11/15 01:20:27;;;;;;;;;;;;;;;;;;5100649;23;19915;-91
2022/11/15 01:23:09;;;;;;;;;;;;;;;;;;5106635;23;19941;-93
2022/11/15 01:25:47;;;;;;;;;;;;;;;;;;5197791;23;19927;-91
2022/11/15 01:28:40;;;;;;;;;;;;;;;;;;5074788;23;20049;-91
2022/11/15 01:31:24;;;;;;;;;;;;;;;;;;5100264;23;19927;-92
2022/11/15 01:39:40;;;;;;;;;;;;;;;;;;5480512;23;19910;-93
2022/11/15 01:42:24;;;;;;;;;;;;;;;;;;5158536;23;19918;-93
2022/11/15 01:45:08;;;;;;;;;;;;;;;;;;5021546;23;19985;-92
2022/11/15 01:47:55;;;;;;;;;;;;;;;;;;5392081;23;19914;-91
2022/11/15 01:53:31;;;;;;;;;;;;;;;;;;5534418;23;19973;-92
2022/11/15 01:56:15;;;;;;;;;;;;;;;;;;5112872;23;20324;-92
2022/11/15 01:59:09;;;;;;;;;;;;;;;;;;5036840;23;19926;-91
2022/11/15 02:01:53;;;;;;;;;;;;;;;;;;5274778;23;19934;-92
2022/11/15 02:04:37;;;;;;;;;;;;;;;;;;5024532;23;19926;-91
2022/11/15 02:07:25;;;;;;;;;;;;;;;;;;5018781;23;19934;-90
2022/11/15 02:10:19;;;;;;;;;;;;;;;;;;5015503;23;19950;-92
2022/11/15 02:13:03;;;;;;;;;;;;;;;;;;5004566;23;19932;-93
2022/11/15 02:18:28;;;;;;;;;;;;;;;;;;5702989;23;19910;-91
2022/11/15 02:21:23;;;;;;;;;;;;;;;;;;5304311;23;19910;-92
2022/11/15 02:24:10;;;;;;;;;;;;;;;;;;5087610;23;19926;-92
2022/11/15 02:26:58;;;;;;;;;;;;;;;;;;5236785;23;19998;-91
2022/11/15 03:05:23;;;;;;;;;;;;;;;;;;5611511;23;19927;-90
2022/11/15 03:08:10;;;;;;;;;;;;;;;;;;5200978;23;19917;-91
2022/11/15 03:10:58;;;;;;;;;;;;;;;;;;4959654;28;19927;-92
2022/11/15 03:13:46;;;;;;;;;;;;;;;;;;5053668;23;19997;-91
2022/11/15 03:16:31;;;;;;;;;;;;;;;;;;4965251;29;19918;-91
2022/11/15 03:19:19;;;;;;;;;;;;;;;;;;4997845;23;20017;-91
2022/11/15 03:22:04;;;;;;;;;;;;;;;;;;4950133;29;19918;-91
2022/11/15 03:24:48;;;;;;;;;;;;;;;;;;4959627;29;19914;-93
2022/11/15 03:27:32;;;;;;;;;;;;;;;;;;4959296;29;20002;-93
2022/11/15 03:30:16;;;;;;;;;;;;;;;;;;4944872;29;19922;-94
2022/11/15 03:33:00;;;;;;;;;;;;;;;;;;4943680;29;20013;-93
2022/11/15 03:35:45;;;;;;;;;;;;;;;;;;4944914;29;19921;-92
2022/11/15 03:38:29;;;;;;;;;;;;;;;;;;4945519;29;19965;-92
2022/11/15 03:41:13;;;;;;;;;;;;;;;;;;4962399;29;19922;-93
2022/11/15 03:43:57;;;;;;;;;;;;;;;;;;4947655;29;19919;-93
2022/11/15 03:46:42;;;;;;;;;;;;;;;;;;4948214;29;19914;-91
2022/11/15 03:49:26;;;;;;;;;;;;;;;;;;4947766;29;19961;-93
2022/11/15 03:52:10;;;;;;;;;;;;;;;;;;4947984;29;19918;-96
2022/11/15 03:54:54;;;;;;;;;;;;;;;;;;4948223;29;19961;-94
2022/11/15 03:57:40;;;;;;;;;;;;;;;;;;4949818;29;20284;-92
2022/11/15 04:00:24;;;;;;;;;;;;;;;;;;4950386;29;19921;-93
2022/11/15 04:03:08;;;;;;;;;;;;;;;;;;4964978;29;19921;-93
2022/11/15 04:05:53;;;;;;;;;;;;;;;;;;4964229;29;19914;-94
2022/11/15 04:08:37;;;;;;;;;;;;;;;;;;4949566;29;19922;-94
2022/11/15 04:11:20;;;;;;;;;;;;;;;;;;4950515;29;19914;-93
2022/11/15 04:14:05;;;;;;;;;;;;;;;;;;4963278;29;19978;-93
2022/11/15 04:16:58;;;;;;;;;;;;;;;;;;4990012;23;19957;-93
2022/11/15 04:25:34;;;;;;;;;;;;;;;;;;5009368;23;19965;-92
2022/11/15 04:28:18;;;;;;;;;;;;;;;;;;4962945;29;19940;-93
2022/11/15 04:31:02;;;;;;;;;;;;;;;;;;4953673;29;19972;-93
2022/11/15 04:33:49;;;;;;;;;;;;;;;;;;4952153;29;19926;-95
2022/11/15 04:39:37;;;;;;;;;;;;;;;;;;4962291;29;19923;-94
2022/11/15 04:42:21;;;;;;;;;;;;;;;;;;4947733;29;19942;-94
2022/11/15 04:45:05;;;;;;;;;;;;;;;;;;4960241;29;19925;-95
2022/11/15 04:47:49;;;;;;;;;;;;;;;;;;4945247;29;20374;-94
2022/11/15 04:50:33;;;;;;;;;;;;;;;;;;4945402;29;19948;-92
2022/11/15 04:53:17;;;;;;;;;;;;;;;;;;4950290;29;20359;-91
2022/11/15 04:56:02;;;;;;;;;;;;;;;;;;4952821;29;19946;-92
2022/11/15 04:58:46;;;;;;;;;;;;;;;;;;4955975;29;19919;-90
2022/11/15 05:01:31;;;;;;;;;;;;;;;;;;4954533;29;19957;-91
2022/11/15 05:04:21;;;;;;;;;;;;;;;;;;4965432;29;19974;-92
2022/11/15 05:07:05;;;;;;;;;;;;;;;;;;4954115;29;19928;-93
2022/11/15 05:09:54;;;;;;;;;;;;;;;;;;5007383;23;19949;-90
2022/11/15 05:12:41;;;;;;;;;;;;;;;;;;5022925;23;19926;-92
2022/11/15 05:15:25;;;;;;;;;;;;;;;;;;4969782;29;20454;-91
2022/11/15 05:18:22;;;;;;;;;;;;;;;;;;5083935;23;19931;-91
2022/11/15 05:21:06;;;;;;;;;;;;;;;;;;5049242;23;19953;-91
2022/11/15 05:23:50;;;;;;;;;;;;;;;;;;5055470;23;19925;-92
2022/11/15 05:26:34;;;;;;;;;;;;;;;;;;4977309;29;19925;-90
2022/11/15 05:29:18;;;;;;;;;;;;;;;;;;4965527;28;20328;-91
2022/11/15 05:34:47;;;;;;;;;;;;;;;;;;5563898;23;19924;-91
2022/11/15 05:40:21;;;;;;;;;;;;;;;;;;5768024;23;21129;-92
2022/11/15 05:43:23;;;;;;;;;;;;;;;;;;;;;
2022/11/15 05:45:55;;;;;;;;;;;;;;;;;;5813387;23;19914;-92
2022/11/15 05:48:45;;;;;;;;;;;;;;;;;;5402436;23;19925;-93
2022/11/15 05:51:31;;;;;;;;;;;;;;;;;;5138314;23;19970;-91
2022/11/15 05:54:16;;;;;;;;;;;;;;;;;;5229693;23;20640;-91
2022/11/15 05:57:08;;;;;;;;;;;;;;;;;;5496121;23;19911;-93
2022/11/15 05:59:52;;;;;;;;;;;;;;;;;;5722024;23;19922;-93
2022/11/15 06:02:36;;;;;;;;;;;;;;;;;;5077978;23;19917;-92
2022/11/15 06:05:24;;;;;;;;;;;;;;;;;;5321032;23;19930;-91
2022/11/15 06:16:57;;;;;;;;;;;;;;;;;;5509867;23;19978;-89
2022/11/15 06:23:08;;;;;;;;;;;;;;;;;;5450465;23;19982;-91
2022/11/15 06:26:07;;;;;;;;;;;;;;;;;;5027818;23;19966;-93
2022/11/15 06:28:51;;;;;;;;;;;;;;;;;;4964165;28;20377;-94
2022/11/15 06:31:35;;;;;;;;;;;;;;;;;;4947715;29;19914;-95
2022/11/15 06:34:19;;;;;;;;;;;;;;;;;;4944533;29;19954;-95
2022/11/15 06:37:04;;;;;;;;;;;;;;;;;;4944770;29;19915;-94
2022/11/15 06:39:48;;;;;;;;;;;;;;;;;;4946861;29;19914;-94
2022/11/15 06:42:33;;;;;;;;;;;;;;;;;;4948513;29;19934;-94
2022/11/15 06:45:17;;;;;;;;;;;;;;;;;;4945824;29;19915;-92
2022/11/15 06:48:02;;;;;;;;;;;;;;;;;;4947177;29;19914;-94
2022/11/15 06:50:55;;;;;;;;;;;;;;;;;;5011884;23;19937;-93
2022/11/15 07:07:09;;;;;;;;;;;;;;;;;;6004919;23;20014;-90
2022/11/15 07:18:11;;;;;;;;;;;;;;;;;;4991965;23;19930;-75
2022/11/15 07:20:56;;;;;;;;;;;;;;;;;;4968839;29;20050;-78
2022/11/15 07:23:40;;;;;;;;;;;;;;;;;;4967883;29;19921;-78
2022/11/15 07:26:24;;;;;;;;;;;;;;;;;;4971790;29;19922;-77
2022/11/15 07:29:08;;;;;;;;;;;;;;;;;;4970071;29;19919;-77
2022/11/15 07:31:52;;;;;;;;;;;;;;;;;;4967486;29;19938;-76
2022/11/15 07:34:37;;;;;;;;;;;;;;;;;;4951778;29;19915;-78
2022/11/15 07:37:23;;;;;;;;;;;;;;;;;;4960838;29;19914;-77
2022/11/15 07:40:08;;;;;;;;;;;;;;;;;;4960506;29;19921;-78
2022/11/15 07:42:52;;;;;;;;;;;;;;;;;;4960078;29;19915;-76
2022/11/15 07:45:36;;;;;;;;;;;;;;;;;;4949011;29;19914;-77
2022/11/15 07:48:21;;;;;;;;;;;;;;;;;;4962822;29;19915;-76
2022/11/15 07:51:05;;;;;;;;;;;;;;;;;;4961849;29;19919;-78
2022/11/15 07:53:49;;;;;;;;;;;;;;;;;;4948261;29;19923;-77
2022/11/15 07:56:33;;;;;;;;;;;;;;;;;;4965967;29;19950;-77
2022/11/15 07:59:19;;;;;;;;;;;;;;;;;;4963792;29;19986;-77
2022/11/15 08:02:03;;;;;;;;;;;;;;;;;;4962647;29;19922;-77
2022/11/15 08:04:47;;;;;;;;;;;;;;;;;;4962567;29;19990;-76
2022/11/15 08:07:31;;;;;;;;;;;;;;;;;;4961079;29;20275;-75
2022/11/15 08:10:18;;;;;;;;;;;;;;;;;;4946233;29;19918;-77
2022/11/15 08:13:02;;;;;;;;;;;;;;;;;;4962355;29;19915;-77
2022/11/15 08:15:46;;;;;;;;;;;;;;;;;;4961903;29;20012;-77
2022/11/15 08:18:30;;;;;;;;;;;;;;;;;;4964834;29;19929;-77
2022/11/15 08:21:15;;;;;;;;;;;;;;;;;;4963567;29;19914;-77
2022/11/15 08:23:59;;;;;;;;;;;;;;;;;;4967352;28;19915;-76
2022/11/15 08:26:43;;;;;;;;;;;;;;;;;;4969856;29;19965;-76
2022/11/15 08:29:27;;;;;;;;;;;;;;;;;;4967896;29;20389;-79
2022/11/15 08:32:11;;;;;;;;;;;;;;;;;;4968458;29;19920;-76
2022/11/15 08:34:55;;;;;;;;;;;;;;;;;;4950191;29;19922;-76
2022/11/15 08:37:40;;;;;;;;;;;;;;;;;;4967311;29;20021;-77
2022/11/15 08:40:27;;;;;;;;;;;;;;;;;;4965971;29;19919;-76
2022/11/15 08:43:11;;;;;;;;;;;;;;;;;;4950308;29;19927;-75
2022/11/15 08:45:55;;;;;;;;;;;;;;;;;;4961497;29;20374;-75
2022/11/15 08:48:39;;;;;;;;;;;;;;;;;;4962887;29;19915;-76
2022/11/15 08:51:24;;;;;;;;;;;;;;;;;;4960940;29;19942;-77
2022/11/15 08:54:07;;;;;;;;;;;;;;;;;;4959506;29;19955;-76
2022/11/15 08:56:52;;;;;;;;;;;;;;;;;;4961375;29;19915;-76
2022/11/15 08:59:35;;;;;;;;;;;;;;;;;;4959755;29;19915;-77
2022/11/15 09:02:19;;;;;;;;;;;;;;;;;;4960622;29;19923;-77
2022/11/15 09:05:03;;;;;;;;;;;;;;;;;;4946961;29;19922;-76
2022/11/15 09:07:48;;;;;;;;;;;;;;;;;;4961160;29;19914;-76
2022/11/15 09:10:32;;;;;;;;;;;;;;;;;;4962079;29;19919;-76
2022/11/15 09:13:16;;;;;;;;;;;;;;;;;;4960995;29;19915;-76
2022/11/15 09:16:00;;;;;;;;;;;;;;;;;;4960656;29;19914;-77
2022/11/15 09:18:44;;;;;;;;;;;;;;;;;;4960770;29;19918;-78
2022/11/15 09:21:28;;;;;;;;;;;;;;;;;;4946394;29;19974;-78
2022/11/15 09:24:13;;;;;;;;;;;;;;;;;;4946293;29;19958;-78
2022/11/15 09:26:58;;;;;;;;;;;;;;;;;;4948332;29;19915;-77
2022/11/15 09:29:42;;;;;;;;;;;;;;;;;;4960025;29;19919;-77
2022/11/15 09:32:26;;;;;;;;;;;;;;;;;;4960043;29;20008;-77
2022/11/15 09:35:10;;;;;;;;;;;;;;;;;;4959191;29;20370;-78
2022/11/15 09:37:54;;;;;;;;;;;;;;;;;;4944516;29;19966;-76
2022/11/15 09:40:38;;;;;;;;;;;;;;;;;;4961158;29;19915;-76
2022/11/15 09:43:25;;;;;;;;;;;;;;;;;;4960240;29;19918;-76
2022/11/15 09:46:09;;;;;;;;;;;;;;;;;;4959512;29;19915;-77
2022/11/15 09:49:10;;;;;;;;;;;;;;;;;;4961033;29;19958;-78
2022/11/15 09:51:55;;;;;;;;;;;;;;;;;;4959595;29;19914;-77
2022/11/15 09:54:20;;;;;;;;;;;;;;;;;;4959438;28;20390;-76
2022/11/15 09:56:46;;;;;;;;;;;;;;;;;;4958917;29;19942;-77
2022/11/15 09:59:11;;;;;;;;;;;;;;;;;;4957216;29;19915;-76
2022/11/15 10:01:37;;;;;;;;;;;;;;;;;;4942156;29;19985;-78
2022/11/15 10:04:02;;;;;;;;;;;;;;;;;;4925556;29;19915;-78
2022/11/15 10:06:28;;;;;;;;;;;;;;;;;;4957426;29;19969;-76
2022/11/15 10:08:54;;;;;;;;;;;;;;;;;;4940305;29;19957;-76
2022/11/15 10:11:19;;;;;;;;;;;;;;;;;;4924709;29;20007;-77
2022/11/15 10:13:45;;;;;;;;;;;;;;;;;;4941879;29;19921;-77
2022/11/15 10:16:11;;;;;;;;;;;;;;;;;;4941920;29;19910;-76
2022/11/15 10:18:37;;;;;;;;;;;;;;;;;;4925390;29;20366;-78
2022/11/15 10:21:02;;;;;;;;;;;;;;;;;;4956748;29;19921;-77
2022/11/15 10:23:28;;;;;;;;;;;;;;;;;;4942850;29;19914;-77
2022/11/15 10:25:53;;;;;;;;;;;;;;;;;;4942969;29;20320;-78
2022/11/15 10:28:19;;;;;;;;;;;;;;;;;;4941650;29;19922;-76
2022/11/15 10:30:45;;;;;;;;;;;;;;;;;;4957347;29;19919;-77
2022/11/15 10:33:13;;;;;;;;;;;;;;;;;;4957648;29;19922;-77
2022/11/15 10:35:39;;;;;;;;;;;;;;;;;;4957256;29;19915;-79
2022/11/15 10:38:05;;;;;;;;;;;;;;;;;;4926343;29;20001;-78
2022/11/15 10:40:30;;;;;;;;;;;;;;;;;;4942789;29;19918;-78
2022/11/15 10:42:56;;;;;;;;;;;;;;;;;;4959601;28;19918;-77
2022/11/15 10:45:22;;;;;;;;;;;;;;;;;;4958600;29;20299;-78
2022/11/15 10:47:47;;;;;;;;;;;;;;;;;;4928175;29;19915;-78
2022/11/15 10:50:12;;;;;;;;;;;;;;;;;;4930317;29;19919;-77
2022/11/15 10:52:38;;;;;;;;;;;;;;;;;;4961301;29;20347;-77
2022/11/15 10:55:04;;;;;;;;;;;;;;;;;;4947319;29;19915;-77
2022/11/15 10:57:30;;;;;;;;;;;;;;;;;;4961308;29;20290;-77
2022/11/15 10:59:55;;;;;;;;;;;;;;;;;;4962175;29;19938;-77
2022/11/15 11:02:21;;;;;;;;;;;;;;;;;;4944768;29;19972;-76
2022/11/15 11:04:47;;;;;;;;;;;;;;;;;;4944907;29;20286;-76
2022/11/15 11:07:15;;;;;;;;;;;;;;;;;;4960755;29;19922;-78
2022/11/15 11:09:42;;;;;;;;;;;;;;;;;;4944151;29;19922;-76
2022/11/15 11:12:07;;;;;;;;;;;;;;;;;;4946464;29;19919;-76
2022/11/15 11:14:33;;;;;;;;;;;;;;;;;;4962927;29;19922;-78
2022/11/15 11:16:59;;;;;;;;;;;;;;;;;;4963273;29;19919;-77
2022/11/15 11:19:24;;;;;;;;;;;;;;;;;;4966698;29;19911;-78
2022/11/15 11:21:50;;;;;;;;;;;;;;;;;;4964245;29;20351;-76
2022/11/15 11:24:15;;;;;;;;;;;;;;;;;;4960103;29;19914;-77
2022/11/15 11:26:41;;;;;;;;;;;;;;;;;;4946599;29;19914;-76
2022/11/15 11:29:07;;;;;;;;;;;;;;;;;;4966457;28;19945;-77
2022/11/15 11:31:32;;;;;;;;;;;;;;;;;;4967798;29;19915;-78
2022/11/15 11:33:58;;;;;;;;;;;;;;;;;;4946912;29;20322;-76
2022/11/15 11:36:23;;;;;;;;;;;;;;;;;;4962346;29;19914;-77
2022/11/15 11:38:49;;;;;;;;;;;;;;;;;;4959617;29;20482;-75
2022/11/15 11:41:14;;;;;;;;;;;;;;;;;;4946967;29;19914;-78
2022/11/15 11:43:40;;;;;;;;;;;;;;;;;;4928911;29;20318;-78
2022/11/15 11:46:06;;;;;;;;;;;;;;;;;;4945297;29;19915;-76
2022/11/15 11:48:31;;;;;;;;;;;;;;;;;;4947439;29;19922;-77
2022/11/15 11:50:57;;;;;;;;;;;;;;;;;;4946651;29;19918;-76
2022/11/15 11:53:23;;;;;;;;;;;;;;;;;;4966388;29;19917;-77
2022/11/15 11:55:48;;;;;;;;;;;;;;;;;;4965351;29;19921;-76
2022/11/15 11:58:14;;;;;;;;;;;;;;;;;;4963874;29;19953;-76
2022/11/15 12:00:39;;;;;;;;;;;;;;;;;;4946563;29;19922;-77
2022/11/15 12:03:05;;;;;;;;;;;;;;;;;;4962758;29;20321;-76
2022/11/15 12:05:30;;;;;;;;;;;;;;;;;;4962873;28;19922;-76
2022/11/15 12:07:56;;;;;;;;;;;;;;;;;;4928725;29;20074;-76
2022/11/15 12:10:21;;;;;;;;;;;;;;;;;;4946408;29;19922;-78
2022/11/15 12:12:47;;;;;;;;;;;;;;;;;;4947580;29;19986;-78
2022/11/15 12:15:13;;;;;;;;;;;;;;;;;;4962931;29;19915;-76
2022/11/15 12:17:38;;;;;;;;;;;;;;;;;;4929006;29;19950;-76
2022/11/15 12:20:09;;;;;;;;;;;;;;;;;;4944176;29;20021;-78
2022/11/15 12:22:35;;;;;;;;;;;;;;;;;;4944190;29;19949;-77
2022/11/15 12:25:00;;;;;;;;;;;;;;;;;;4945581;29;20342;-76
2022/11/15 12:27:27;;;;;;;;;;;;;;;;;;4961409;29;19915;-75
2022/11/15 12:29:53;;;;;;;;;;;;;;;;;;4944073;29;19924;-76
2022/11/15 12:32:18;;;;;;;;;;;;;;;;;;4959739;29;19915;-76
2022/11/15 12:34:44;;;;;;;;;;;;;;;;;;4957833;29;19959;-79
2022/11/15 12:37:10;;;;;;;;;;;;;;;;;;4939581;29;20448;-78
2022/11/15 12:39:35;;;;;;;;;;;;;;;;;;4955136;29;19957;-76
2022/11/15 12:42:01;;;;;;;;;;;;;;;;;;4954707;29;19915;-76
2022/11/15 12:44:26;;;;;;;;;;;;;;;;;;4938887;29;20294;-77
2022/11/15 12:46:52;;;;;;;;;;;;;;;;;;4938669;29;19950;-78
2022/11/15 12:49:17;;;;;;;;;;;;;;;;;;4922227;29;19929;-78
2022/11/15 12:51:43;;;;;;;;;;;;;;;;;;4938283;29;20363;-79
2022/11/15 12:54:09;;;;;;;;;;;;;;;;;;4954391;29;19981;-78
2022/11/15 12:56:34;;;;;;;;;;;;;;;;;;4922364;29;20363;-77
2022/11/15 12:59:04;;;;;;;;;;;;;;;;;;4954344;29;19915;-78
2022/11/15 13:01:30;;;;;;;;;;;;;;;;;;4938295;29;19918;-78
2022/11/15 13:03:56;;;;;;;;;;;;;;;;;;4937645;29;19917;-78
2022/11/15 13:06:22;;;;;;;;;;;;;;;;;;4954203;29;19914;-77
2022/11/15 13:08:47;;;;;;;;;;;;;;;;;;4954221;29;19922;-78
2022/11/15 13:11:15;;;;;;;;;;;;;;;;;;4922667;29;20259;-78
2022/11/15 13:13:41;;;;;;;;;;;;;;;;;;4937826;29;19917;-78
2022/11/15 13:16:06;;;;;;;;;;;;;;;;;;4937830;29;19919;-81
2022/11/15 13:18:32;;;;;;;;;;;;;;;;;;4966770;23;19926;-86
2022/11/15 13:21:00;;;;;;;;;;;;;;;;;;4923540;29;19921;-85
2022/11/15 13:23:26;;;;;;;;;;;;;;;;;;4938354;29;19914;-85
2022/11/15 13:25:52;;;;;;;;;;;;;;;;;;4954751;29;20345;-84
2022/11/15 13:28:18;;;;;;;;;;;;;;;;;;4922836;29;19935;-85
2022/11/15 13:30:43;;;;;;;;;;;;;;;;;;4938307;29;19931;-83
2022/11/15 13:33:09;;;;;;;;;;;;;;;;;;4954940;28;20378;-84
2022/11/15 13:35:34;;;;;;;;;;;;;;;;;;4953927;29;19915;-83
2022/11/15 13:38:00;;;;;;;;;;;;;;;;;;4937757;29;19953;-84
2022/11/15 13:40:27;;;;;;;;;;;;;;;;;;4956461;29;19914;-84
2022/11/15 13:42:52;;;;;;;;;;;;;;;;;;4921906;29;19957;-83
2022/11/15 13:45:18;;;;;;;;;;;;;;;;;;4953458;29;20429;-84
2022/11/15 13:47:43;;;;;;;;;;;;;;;;;;4954860;29;19911;-84
2022/11/15 13:50:09;;;;;;;;;;;;;;;;;;4953374;29;20441;-84
2022/11/15 13:52:34;;;;;;;;;;;;;;;;;;4953308;29;20260;-83
2022/11/15 13:55:00;;;;;;;;;;;;;;;;;;4954955;29;19922;-83
2022/11/15 13:57:27;;;;;;;;;;;;;;;;;;4953996;29;19930;-85
2022/11/15 14:00:02;;;;;;;;;;;;;;;;;;4938857;29;19966;-83
2022/11/15 14:02:37;;;;;;;;;;;;;;;;;;4954360;28;19921;-86
2022/11/15 14:05:02;;;;;;;;;;;;;;;;;;4954318;28;19914;-83
2022/11/15 14:07:28;;;;;;;;;;;;;;;;;;4953104;29;20374;-84
2022/11/15 14:09:53;;;;;;;;;;;;;;;;;;4937203;29;19941;-84
2022/11/15 14:12:19;;;;;;;;;;;;;;;;;;4952967;29;19919;-85
2022/11/15 14:14:44;;;;;;;;;;;;;;;;;;4952980;29;19918;-85
2022/11/15 14:17:11;;;;;;;;;;;;;;;;;;4954066;29;19923;-84
2022/11/15 14:19:39;;;;;;;;;;;;;;;;;;4953793;28;20180;-86
2022/11/15 14:22:08;;;;;;;;;;;;;;;;;;4953082;28;20401;-84
2022/11/15 14:24:33;;;;;;;;;;;;;;;;;;4954621;28;19937;-85
2022/11/15 14:26:59;;;;;;;;;;;;;;;;;;4954831;29;20370;-85
2022/11/15 14:29:24;;;;;;;;;;;;;;;;;;4953054;29;19954;-85
2022/11/15 14:31:49;;;;;;;;;;;;;;;;;;4955192;29;19914;-87
2022/11/15 14:34:15;;;;;;;;;;;;;;;;;;4954681;29;20389;-86
2022/11/15 14:36:40;;;;;;;;;;;;;;;;;;4953557;29;20331;-87
2022/11/15 14:39:06;;;;;;;;;;;;;;;;;;4953582;29;20371;-87
2022/11/15 14:41:33;;;;;;;;;;;;;;;;;;4953611;29;20354;-87
2022/11/15 14:43:58;;;;;;;;;;;;;;;;;;4954454;29;19914;-88
2022/11/15 14:46:24;;;;;;;;;;;;;;;;;;4936910;29;19920;-88
2022/11/15 14:48:50;;;;;;;;;;;;;;;;;;4937715;29;19918;-88
2022/11/15 14:51:15;;;;;;;;;;;;;;;;;;4954474;29;20018;-85
2022/11/15 14:53:41;;;;;;;;;;;;;;;;;;4956366;29;20322;-85
2022/11/15 14:56:06;;;;;;;;;;;;;;;;;;4959021;29;19911;-87
2022/11/15 14:58:32;;;;;;;;;;;;;;;;;;4959248;29;19938;-88
2022/11/15 15:00:57;;;;;;;;;;;;;;;;;;4957822;28;19919;-88
2022/11/15 15:03:23;;;;;;;;;;;;;;;;;;4957308;29;19922;-86
2022/11/15 15:05:48;;;;;;;;;;;;;;;;;;4939015;29;19921;-89
2022/11/15 15:08:17;;;;;;;;;;;;;;;;;;4954308;29;19915;-88
2022/11/15 15:10:42;;;;;;;;;;;;;;;;;;4937300;29;19918;-88
2022/11/15 15:13:07;;;;;;;;;;;;;;;;;;4954226;29;19914;-89
2022/11/15 15:15:33;;;;;;;;;;;;;;;;;;4953177;29;19946;-87
2022/11/15 15:17:58;;;;;;;;;;;;;;;;;;4955600;29;19941;-88
2022/11/15 15:20:24;;;;;;;;;;;;;;;;;;4937198;29;20337;-89
2022/11/15 15:22:49;;;;;;;;;;;;;;;;;;4937412;29;20464;-87
2022/11/15 15:25:15;;;;;;;;;;;;;;;;;;4953342;29;20367;-89
2022/11/15 15:27:40;;;;;;;;;;;;;;;;;;4953669;29;19918;-89
2022/11/15 15:30:06;;;;;;;;;;;;;;;;;;4936563;29;19918;-89
2022/11/15 15:32:31;;;;;;;;;;;;;;;;;;4954249;29;20401;-90
2022/11/15 15:34:56;;;;;;;;;;;;;;;;;;4923010;29;19986;-89
2022/11/15 15:37:25;;;;;;;;;;;;;;;;;;4940495;29;19915;-90
2022/11/15 15:39:51;;;;;;;;;;;;;;;;;;4926791;29;19938;-89
2022/11/15 15:42:16;;;;;;;;;;;;;;;;;;4959961;29;19914;-89
2022/11/15 15:44:41;;;;;;;;;;;;;;;;;;4965371;29;19915;-86
2022/11/15 15:47:07;;;;;;;;;;;;;;;;;;4964250;29;20350;-89
2022/11/15 15:49:32;;;;;;;;;;;;;;;;;;4964745;29;19925;-88
2022/11/15 15:51:58;;;;;;;;;;;;;;;;;;4963033;29;19915;-87
2022/11/15 15:54:23;;;;;;;;;;;;;;;;;;4963884;29;19915;-88
2022/11/15 15:56:49;;;;;;;;;;;;;;;;;;4963891;29;19914;-88
2022/11/15 15:59:14;;;;;;;;;;;;;;;;;;4959609;29;20398;-88
2022/11/15 16:01:40;;;;;;;;;;;;;;;;;;4958024;29;19918;-88
2022/11/15 16:04:05;;;;;;;;;;;;;;;;;;4940253;29;19914;-89
2022/11/15 16:06:31;;;;;;;;;;;;;;;;;;4956844;29;19922;-88
2022/11/15 16:08:57;;;;;;;;;;;;;;;;;;4956477;29;19951;-89
2022/11/15 16:11:23;;;;;;;;;;;;;;;;;;4956396;29;19922;-89
2022/11/15 16:13:48;;;;;;;;;;;;;;;;;;4955891;29;19914;-89
2022/11/15 16:16:14;;;;;;;;;;;;;;;;;;4955797;29;20275;-90
2022/11/15 16:18:39;;;;;;;;;;;;;;;;;;4956333;29;19918;-88
2022/11/15 16:21:05;;;;;;;;;;;;;;;;;;4955474;29;20298;-88
2022/11/15 16:23:30;;;;;;;;;;;;;;;;;;4955292;29;20361;-89
2022/11/15 16:25:56;;;;;;;;;;;;;;;;;;4955697;29;19921;-90
2022/11/15 16:28:21;;;;;;;;;;;;;;;;;;4956572;29;20010;-89
2022/11/15 16:30:47;;;;;;;;;;;;;;;;;;4956664;28;20305;-88
2022/11/15 16:33:13;;;;;;;;;;;;;;;;;;4956662;29;20379;-88
2022/11/15 16:35:38;;;;;;;;;;;;;;;;;;4940020;29;20271;-90
2022/11/15 16:38:04;;;;;;;;;;;;;;;;;;4955561;29;19975;-90
2022/11/15 16:40:30;;;;;;;;;;;;;;;;;;4956674;29;19918;-89
2022/11/15 16:42:55;;;;;;;;;;;;;;;;;;4956320;28;19970;-87
2022/11/15 16:45:20;;;;;;;;;;;;;;;;;;4956561;28;20325;-89
2022/11/15 16:47:48;;;;;;;;;;;;;;;;;;4955286;29;20286;-88
2022/11/15 16:50:14;;;;;;;;;;;;;;;;;;4956075;29;20291;-89
2022/11/15 16:52:39;;;;;;;;;;;;;;;;;;4939375;29;19922;-90
2022/11/15 16:55:05;;;;;;;;;;;;;;;;;;4956393;29;19914;-90
2022/11/15 16:57:30;;;;;;;;;;;;;;;;;;4938704;29;19925;-89
2022/11/15 16:59:56;;;;;;;;;;;;;;;;;;4956134;29;19914;-89
2022/11/15 17:02:21;;;;;;;;;;;;;;;;;;4955768;28;19925;-89
2022/11/15 17:04:47;;;;;;;;;;;;;;;;;;4956110;29;20333;-88
2022/11/15 17:07:12;;;;;;;;;;;;;;;;;;4955868;29;20342;-89
2022/11/15 17:09:37;;;;;;;;;;;;;;;;;;4954711;29;20329;-89
2022/11/15 17:12:03;;;;;;;;;;;;;;;;;;4954938;29;19915;-90
2022/11/15 17:14:28;;;;;;;;;;;;;;;;;;4954074;29;19915;-90
2022/11/15 17:16:54;;;;;;;;;;;;;;;;;;4954109;29;19926;-90
2022/11/15 17:19:19;;;;;;;;;;;;;;;;;;4956287;29;19919;-89
2022/11/15 17:21:45;;;;;;;;;;;;;;;;;;4955448;29;19922;-90
2022/11/15 17:24:10;;;;;;;;;;;;;;;;;;4955326;29;20293;-90
2022/11/15 17:26:36;;;;;;;;;;;;;;;;;;4955455;29;20442;-89
2022/11/15 17:29:03;;;;;;;;;;;;;;;;;;4954805;29;20294;-89
2022/11/15 17:31:29;;;;;;;;;;;;;;;;;;4954889;29;19915;-89
2022/11/15 17:33:55;;;;;;;;;;;;;;;;;;4955625;28;19915;-89
2022/11/15 17:36:21;;;;;;;;;;;;;;;;;;4955729;29;19914;-89
2022/11/15 17:38:51;;;;;;;;;;;;;;;;;;4940178;29;19914;-88
2022/11/15 17:41:16;;;;;;;;;;;;;;;;;;4938669;29;19925;-90
2022/11/15 17:43:42;;;;;;;;;;;;;;;;;;4954317;29;20441;-88
2022/11/15 17:46:07;;;;;;;;;;;;;;;;;;4954604;29;20365;-88
2022/11/15 17:48:32;;;;;;;;;;;;;;;;;;4954294;29;19950;-88
2022/11/15 17:50:58;;;;;;;;;;;;;;;;;;4954312;29;19918;-88
2022/11/15 17:53:23;;;;;;;;;;;;;;;;;;4955950;29;19915;-87
2022/11/15 17:55:49;;;;;;;;;;;;;;;;;;4954562;29;20289;-88
2022/11/15 17:58:17;;;;;;;;;;;;;;;;;;4953704;28;20481;-89
2022/11/15 18:00:42;;;;;;;;;;;;;;;;;;4954509;29;19910;-87
2022/11/15 18:03:08;;;;;;;;;;;;;;;;;;4954124;29;20346;-85
2022/11/15 18:05:34;;;;;;;;;;;;;;;;;;4955739;28;19915;-88
2022/11/15 18:07:59;;;;;;;;;;;;;;;;;;4955352;28;19914;-87
2022/11/15 18:10:25;;;;;;;;;;;;;;;;;;4954091;29;20351;-82
2022/11/15 18:12:50;;;;;;;;;;;;;;;;;;4955327;29;20382;-86
2022/11/15 18:15:17;;;;;;;;;;;;;;;;;;4955895;28;19962;-88
2022/11/15 18:17:43;;;;;;;;;;;;;;;;;;4954995;29;19926;-86
2022/11/15 18:20:08;;;;;;;;;;;;;;;;;;4955276;29;19918;-87
2022/11/15 18:22:34;;;;;;;;;;;;;;;;;;4957085;28;20329;-87
2022/11/15 18:25:00;;;;;;;;;;;;;;;;;;4956765;28;19965;-89
2022/11/15 18:27:25;;;;;;;;;;;;;;;;;;4924291;29;19989;-86
2022/11/15 18:29:51;;;;;;;;;;;;;;;;;;4956939;28;19918;-87
2022/11/15 18:32:17;;;;;;;;;;;;;;;;;;4957601;29;20369;-87
2022/11/15 18:34:42;;;;;;;;;;;;;;;;;;4939826;29;19914;-86
2022/11/15 18:37:08;;;;;;;;;;;;;;;;;;4942552;29;19911;-86
2022/11/15 18:39:33;;;;;;;;;;;;;;;;;;4958455;29;20374;-85
2022/11/15 18:41:59;;;;;;;;;;;;;;;;;;4960436;28;20363;-87
2022/11/15 18:44:24;;;;;;;;;;;;;;;;;;4944785;29;20359;-87
2022/11/15 18:46:50;;;;;;;;;;;;;;;;;;4962374;29;19962;-86
2022/11/15 18:49:15;;;;;;;;;;;;;;;;;;4972409;29;20397;-86
2022/11/15 18:51:41;;;;;;;;;;;;;;;;;;4966380;29;19954;-85
2022/11/15 18:54:07;;;;;;;;;;;;;;;;;;4941605;29;19922;-83
2022/11/15 18:56:32;;;;;;;;;;;;;;;;;;4973340;29;19977;-84
2022/11/15 18:58:58;;;;;;;;;;;;;;;;;;4956767;29;19943;-84
2022/11/15 19:01:24;;;;;;;;;;;;;;;;;;4939027;29;19986;-83
2022/11/15 19:03:49;;;;;;;;;;;;;;;;;;4972775;29;20338;-85
2022/11/15 19:06:17;;;;;;;;;;;;;;;;;;4956428;29;19954;-86
2022/11/15 19:08:43;;;;;;;;;;;;;;;;;;4970722;28;20289;-83